Time;durP1;ratioP1;P1;durP2;ratioP2;P2;SDS_P1;SDS_P2;PMS_P1;PMS_P2;Temp;Humidity;BMP_temperature;BMP_pressure;BME280_temperature;BME280_humidity;BME280_pressure;Samples;Min_cycle;Max_cycle;Signal;HPM_P1;HPM_P2
2022/07/15 00:01:28;;;;;;;5.28;1.73;;;;;;;26.94;32.18;102195.41;6187494;23;20512;-56
2022/07/15 00:03:55;;;;;;;5.85;1.92;;;;;;;26.97;32.09;102174.41;6187216;23;20009;-53
2022/07/15 00:06:22;;;;;;;7.50;1.83;;;;;;;27.01;31.96;102171.84;6187365;23;20062;-57
2022/07/15 00:08:51;;;;;;;5.85;1.80;;;;;;;26.97;31.83;102147.19;6187255;23;20005;-58
2022/07/15 00:11:19;;;;;;;4.60;1.55;;;;;;;27.12;31.71;102163.28;6210018;23;20041;-58
2022/07/15 00:13:47;;;;;;;7.50;2.17;;;;;;;27.11;32.02;102156.22;6186878;23;20040;-56
2022/07/15 00:16:16;;;;;;;6.18;1.85;;;;;;;26.96;31.70;102125.22;6187008;23;20463;-53
2022/07/15 00:18:44;;;;;;;7.45;2.00;;;;;;;27.20;31.76;102159.88;6185515;23;20013;-58
2022/07/15 00:21:11;;;;;;;4.47;1.73;;;;;;;27.20;31.84;102157.25;6185795;23;20001;-59
2022/07/15 00:23:40;;;;;;;5.35;1.80;;;;;;;27.16;31.67;102151.03;6186227;23;20106;-56
2022/07/15 00:26:08;;;;;;;5.40;1.88;;;;;;;27.03;32.32;102149.91;6187180;23;20005;-53
2022/07/15 00:28:37;;;;;;;5.65;1.52;;;;;;;27.02;32.11;102142.88;6186754;23;20016;-50
2022/07/15 00:31:05;;;;;;;6.32;1.90;;;;;;;26.87;32.54;102148.75;6187136;23;20008;-44
2022/07/15 00:33:34;;;;;;;4.15;1.33;;;;;;;26.82;32.26;102122.31;6185361;23;20009;-56
2022/07/15 00:36:03;;;;;;;6.68;1.85;;;;;;;26.90;32.45;102121.59;6185462;23;20001;-46
2022/07/15 00:38:31;;;;;;;8.68;2.30;;;;;;;26.74;32.65;102109.84;6184579;23;20078;-56
2022/07/15 00:41:00;;;;;;;6.45;1.88;;;;;;;26.83;32.52;102128.50;6184796;23;20444;-45
2022/07/15 00:43:28;;;;;;;7.00;1.88;;;;;;;26.83;32.82;102133.75;6221777;23;20038;-50
2022/07/15 00:45:57;;;;;;;9.93;1.90;;;;;;;26.83;32.61;102132.00;6247021;23;20328;-44
2022/07/15 00:48:25;;;;;;;4.72;1.50;;;;;;;26.77;32.81;102125.69;6247324;23;20059;-45
2022/07/15 00:50:54;;;;;;;5.07;1.70;;;;;;;26.73;32.80;102135.28;6245825;23;20007;-57
2022/07/15 00:53:23;;;;;;;7.18;2.15;;;;;;;26.85;32.66;102132.03;6246965;23;20058;-44
2022/07/15 00:55:51;;;;;;;7.20;2.00;;;;;;;26.92;32.56;102138.31;6220797;23;20053;-44
2022/07/15 00:58:23;;;;;;;9.15;1.92;;;;;;;26.81;32.84;102140.72;6220896;23;20008;-54
2022/07/15 01:00:51;;;;;;;6.28;2.40;;;;;;;26.67;32.84;102132.50;6247666;23;20103;-44
2022/07/15 01:03:19;;;;;;;8.25;2.30;;;;;;;26.60;33.22;102128.88;6247494;23;20019;-46
2022/07/15 01:05:49;;;;;;;6.72;2.00;;;;;;;26.62;33.17;102139.44;6244375;23;20008;-44
2022/07/15 01:08:18;;;;;;;10.30;2.38;;;;;;;26.76;32.92;102135.34;6245109;23;20035;-55
2022/07/15 01:10:48;;;;;;;11.73;2.28;;;;;;;26.74;33.00;102129.16;6246943;23;20008;-48
2022/07/15 01:13:16;;;;;;;10.07;2.53;;;;;;;26.66;33.17;102128.09;6245639;23;20054;-55
2022/07/15 01:15:46;;;;;;;7.90;1.75;;;;;;;26.61;33.37;102124.50;6219936;23;20005;-54
2022/07/15 01:18:13;;;;;;;5.93;1.92;;;;;;;26.48;33.74;102118.09;6220522;23;20004;-43
2022/07/15 01:20:46;;;;;;;6.13;2.05;;;;;;;26.51;33.59;102116.41;6245253;23;20050;-55
2022/07/15 01:23:14;;;;;;;6.25;2.17;;;;;;;26.54;33.34;102118.25;6219882;23;20062;-49
2022/07/15 01:25:44;;;;;;;7.72;2.42;;;;;;;26.52;33.54;102115.56;6246742;23;20008;-55
2022/07/15 01:28:12;;;;;;;4.35;1.73;;;;;;;26.46;33.78;102104.94;6219791;23;20309;-48
2022/07/15 01:30:41;;;;;;;7.78;1.83;;;;;;;26.36;33.56;102103.84;6246074;23;20007;-43
2022/07/15 01:33:11;;;;;;;6.05;1.80;;;;;;;26.37;33.70;102103.00;6246830;23;20341;-53
2022/07/15 01:35:40;;;;;;;7.88;2.33;;;;;;;26.37;33.69;102103.00;6246648;23;19996;-52
2022/07/15 01:38:09;;;;;;;6.60;1.90;;;;;;;26.30;33.82;102093.19;6245059;23;20011;-56
2022/07/15 01:40:37;;;;;;;9.18;1.95;;;;;;;26.20;34.12;102085.97;6246583;23;20008;-46
2022/07/15 01:43:06;;;;;;;7.55;1.73;;;;;;;26.31;33.59;102079.19;6194399;23;20016;-50
2022/07/15 01:45:34;;;;;;;9.95;2.30;;;;;;;26.24;33.69;102078.16;6246564;23;20004;-44
2022/07/15 01:48:03;;;;;;;8.00;2.10;;;;;;;26.08;34.23;102068.16;6246552;23;20008;-44
2022/07/15 01:50:31;;;;;;;7.05;1.95;;;;;;;26.16;33.90;102068.34;6245961;23;20000;-49
2022/07/15 01:53:01;;;;;;;5.70;1.52;;;;;;;26.14;34.00;102080.56;6246678;23;20420;-44
2022/07/15 01:55:30;;;;;;;8.05;1.77;;;;;;;26.19;34.07;102071.03;6246460;23;20000;-44
2022/07/15 01:57:58;;;;;;;8.77;2.10;;;;;;;26.15;33.65;102059.53;6246314;23;20087;-48
2022/07/15 02:00:27;;;;;;;6.35;1.75;;;;;;;26.12;33.73;102066.50;6246258;23;20035;-44
2022/07/15 02:02:57;;;;;;;6.32;2.22;;;;;;;26.00;34.08;102067.06;6244798;23;20435;-51
2022/07/15 02:05:26;;;;;;;6.43;1.70;;;;;;;26.04;34.00;102084.69;6246126;23;20000;-47
2022/07/15 02:07:54;;;;;;;5.85;2.10;;;;;;;25.92;33.95;102059.94;6246360;23;20008;-56
2022/07/15 02:10:23;;;;;;;7.15;1.70;;;;;;;26.09;34.23;102080.44;6246542;23;20007;-44
2022/07/15 02:12:50;;;;;;;8.25;1.80;;;;;;;25.97;34.08;102083.69;6245879;23;20027;-46
2022/07/15 02:15:19;;;;;;;6.65;1.70;;;;;;;25.88;34.24;102067.72;6246420;23;20489;-45
2022/07/15 02:17:48;;;;;;;5.00;1.70;;;;;;;26.02;34.07;102089.03;6244064;23;20070;-47
2022/07/15 02:20:17;;;;;;;6.20;1.90;;;;;;;25.97;34.17;102088.06;6219274;23;20091;-57
2022/07/15 02:22:46;;;;;;;7.53;2.03;;;;;;;26.03;33.91;102083.84;6246454;23;20000;-50
2022/07/15 02:25:14;;;;;;;4.40;1.88;;;;;;;26.08;34.01;102097.06;6245769;23;20050;-45
2022/07/15 02:27:44;;;;;;;6.30;1.98;;;;;;;25.97;33.71;102082.81;6219283;23;20008;-54
2022/07/15 02:30:12;;;;;;;5.10;1.55;;;;;;;25.84;34.42;102079.88;6246417;23;20004;-56
2022/07/15 02:32:41;;;;;;;5.15;1.42;;;;;;;25.79;34.29;102095.56;6245979;23;20427;-48
2022/07/15 02:35:09;;;;;;;9.15;2.58;;;;;;;25.82;34.04;102089.47;6219205;23;20004;-46
2022/07/15 02:37:38;;;;;;;14.18;3.50;;;;;;;25.91;34.03;102105.47;6219542;23;20000;-44
2022/07/15 02:40:07;;;;;;;6.10;1.80;;;;;;;25.87;34.12;102097.47;6245635;23;20015;-45
2022/07/15 02:42:36;;;;;;;8.43;2.20;;;;;;;25.79;34.33;102084.16;6243995;23;20024;-44
2022/07/15 02:45:05;;;;;;;5.70;1.83;;;;;;;25.87;34.35;102113.25;6246214;23;20070;-52
2022/07/15 02:47:34;;;;;;;7.28;2.00;;;;;;;25.85;34.20;102109.69;6246179;23;20004;-52
2022/07/15 02:50:03;;;;;;;5.82;1.95;;;;;;;25.88;34.42;102105.38;6246166;23;20030;-48
2022/07/15 02:52:32;;;;;;;8.35;2.05;;;;;;;25.86;34.20;102099.22;6246416;23;20000;-52
2022/07/15 02:55:00;;;;;;;6.28;1.80;;;;;;;25.69;34.08;102080.44;6244318;23;20004;-51
2022/07/15 02:57:29;;;;;;;10.55;2.60;;;;;;;25.77;34.35;102102.50;6246103;23;20070;-43
2022/07/15 02:59:58;;;;;;;7.47;2.28;;;;;;;25.82;33.97;102096.47;6219186;23;20008;-45
2022/07/15 03:02:27;;;;;;;5.82;1.90;;;;;;;25.76;34.14;102087.59;6219662;23;20000;-45
2022/07/15 03:04:56;;;;;;;6.35;1.98;;;;;;;25.80;33.96;102096.47;6245360;23;20705;-57
2022/07/15 03:07:25;;;;;;;5.03;1.58;;;;;;;25.66;34.27;102072.47;6194364;23;20344;-46
2022/07/15 03:09:53;;;;;;;6.10;1.83;;;;;;;25.62;34.53;102082.03;6243912;23;20011;-46
2022/07/15 03:12:22;;;;;;;6.55;2.00;;;;;;;25.75;34.23;102098.94;6245483;23;20000;-44
2022/07/15 03:14:50;;;;;;;8.55;2.00;;;;;;;25.71;34.32;102093.59;6246437;23;20391;-47
2022/07/15 03:17:19;;;;;;;5.30;1.65;;;;;;;25.66;34.07;102096.13;6245459;23;20434;-44
2022/07/15 03:19:48;;;;;;;9.98;2.13;;;;;;;25.63;34.60;102106.56;6245787;23;20000;-46
2022/07/15 03:22:16;;;;;;;6.55;1.88;;;;;;;25.59;34.58;102107.31;6245951;23;20027;-44
2022/07/15 03:24:45;;;;;;;9.98;2.08;;;;;;;25.58;34.77;102116.06;6245853;23;20370;-46
2022/07/15 03:27:14;;;;;;;8.13;1.95;;;;;;;25.48;34.96;102101.84;6245538;23;20000;-56
2022/07/15 03:29:43;;;;;;;8.55;1.90;;;;;;;25.43;35.15;102106.94;6195094;23;20008;-44
2022/07/15 03:32:15;;;;;;;8.00;2.20;;;;;;;25.45;34.93;102099.13;6196331;23;20312;-43
2022/07/15 03:34:44;;;;;;;6.90;2.03;;;;;;;25.27;34.58;102068.91;6247774;23;20004;-45
2022/07/15 03:37:13;;;;;;;7.18;2.03;;;;;;;25.48;34.55;102099.22;6247421;23;20341;-57
2022/07/15 03:39:42;;;;;;;4.88;1.60;;;;;;;25.38;34.92;102086.66;6247555;23;20343;-51
2022/07/15 03:42:10;;;;;;;4.90;1.63;;;;;;;25.34;34.58;102089.19;6247531;23;20083;-50
2022/07/15 03:44:39;;;;;;;5.82;1.63;;;;;;;25.48;34.30;102102.72;6247271;23;20019;-51
2022/07/15 03:47:08;;;;;;;5.43;1.92;;;;;;;25.36;34.36;102085.72;6247630;23;20008;-45
2022/07/15 03:49:36;;;;;;;7.43;1.60;;;;;;;25.33;34.28;102097.91;6221045;23;20004;-47
2022/07/15 03:52:06;;;;;;;5.18;2.03;;;;;;;25.28;34.34;102099.56;6247404;23;20050;-56
2022/07/15 03:54:34;;;;;;;6.07;1.90;;;;;;;25.30;34.54;102097.88;6220229;23;20149;-46
2022/07/15 03:57:03;;;;;;;6.57;2.10;;;;;;;25.37;34.49;102112.03;6247104;23;20011;-45
2022/07/15 03:59:31;;;;;;;4.97;1.70;;;;;;;25.25;34.73;102103.81;6220758;23;20004;-46
2022/07/15 04:02:00;;;;;;;4.70;1.60;;;;;;;25.25;34.61;102104.72;6247545;23;20371;-43
2022/07/15 04:04:27;;;;;;;7.65;1.92;;;;;;;25.17;34.50;102101.00;6247274;23;20006;-48
2022/07/15 04:06:56;;;;;;;5.32;1.58;;;;;;;25.18;34.60;102089.66;6247307;23;20004;-47
2022/07/15 04:09:24;;;;;;;5.15;1.40;;;;;;;25.15;34.59;102086.97;6247643;23;20011;-48
2022/07/15 04:11:51;;;;;;;5.97;1.63;;;;;;;25.15;34.45;102093.09;6220792;23;20007;-48
2022/07/15 04:14:22;;;;;;;4.80;1.60;;;;;;;25.09;34.42;102079.78;6220765;23;20012;-43
2022/07/15 04:16:50;;;;;;;3.83;1.33;;;;;;;25.11;34.07;102079.84;6247277;23;20004;-56
2022/07/15 04:19:17;;;;;;;4.43;1.30;;;;;;;25.22;34.28;102095.91;6220480;23;20336;-50
2022/07/15 04:21:46;;;;;;;4.53;1.50;;;;;;;25.14;34.23;102095.69;6247487;23;20007;-46
2022/07/15 04:24:14;;;;;;;4.18;1.63;;;;;;;25.03;34.37;102087.53;6220839;23;20036;-47
2022/07/15 04:26:43;;;;;;;4.85;1.65;;;;;;;25.06;34.21;102094.59;6247234;23;20008;-48
2022/07/15 04:29:11;;;;;;;4.95;1.50;;;;;;;25.03;34.36;102101.53;6246383;23;20321;-53
2022/07/15 04:31:40;;;;;;;6.07;1.80;;;;;;;25.07;34.53;102093.75;6220642;23;20509;-48
2022/07/15 04:34:08;;;;;;;5.43;1.60;;;;;;;25.11;34.10;102092.97;6247120;23;20000;-50
2022/07/15 04:36:37;;;;;;;4.63;1.25;;;;;;;25.22;34.07;102094.13;6246431;23;20073;-46
2022/07/15 04:39:06;;;;;;;5.95;1.92;;;;;;;25.12;34.75;102105.25;6246785;23;20104;-47
2022/07/15 04:41:34;;;;;;;6.07;1.98;;;;;;;25.08;34.79;102093.78;6246485;23;20305;-44
2022/07/15 04:44:03;;;;;;;5.28;2.15;;;;;;;25.01;34.65;102081.34;6246790;23;20012;-48
2022/07/15 04:46:31;;;;;;;5.57;1.70;;;;;;;25.03;34.73;102091.03;6246549;23;20000;-47
2022/07/15 04:51:47;;;;;;;5.50;1.50;;;;;;;25.03;34.92;102092.78;6235017;23;20023;-47
2022/07/15 04:54:16;;;;;;;9.93;2.20;;;;;;;25.08;34.80;102093.78;6220017;23;20458;-53
2022/07/15 04:56:44;;;;;;;5.93;1.88;;;;;;;25.09;34.78;102092.94;6246829;23;20015;-56
2022/07/15 04:59:13;;;;;;;10.02;1.88;;;;;;;25.10;34.98;102094.69;6246600;23;20325;-44
2022/07/15 05:01:41;;;;;;;3.75;1.45;;;;;;;25.15;34.87;102097.47;6246909;23;20083;-46
2022/07/15 05:04:08;;;;;;;7.65;1.83;;;;;;;25.03;35.41;102093.66;6245549;23;20091;-47
2022/07/15 05:06:37;;;;;;;6.97;2.15;;;;;;;25.02;35.21;102091.88;6246764;23;20004;-45
2022/07/15 05:09:05;;;;;;;6.45;2.35;;;;;;;25.05;35.32;102090.19;6246442;23;20000;-55
2022/07/15 05:11:33;;;;;;;6.88;1.65;;;;;;;25.12;35.30;102084.25;6246372;23;20000;-46
2022/07/15 05:14:01;;;;;;;5.05;1.65;;;;;;;25.18;35.38;102089.66;6247080;23;20011;-51
2022/07/15 05:16:30;;;;;;;5.88;1.73;;;;;;;25.12;35.50;102081.63;6219651;23;20008;-50
2022/07/15 05:18:59;;;;;;;9.20;1.70;;;;;;;25.10;35.47;102091.22;6246158;23;20031;-48
2022/07/15 05:21:27;;;;;;;9.15;2.03;;;;;;;25.14;35.32;102086.06;6245897;23;20008;-53
2022/07/15 05:23:56;;;;;;;8.05;2.05;;;;;;;25.19;35.33;102075.66;6246666;23;20000;-50
2022/07/15 05:26:24;;;;;;;7.80;1.83;;;;;;;25.16;35.52;102084.38;6246604;23;20000;-48
2022/07/15 05:28:53;;;;;;;4.43;1.33;;;;;;;25.22;35.78;102082.75;6219564;23;20012;-51
2022/07/15 05:31:22;;;;;;;6.95;1.85;;;;;;;25.25;35.86;102078.47;6246275;23;20412;-48
2022/07/15 05:33:52;;;;;;;7.72;2.17;;;;;;;25.13;35.75;102071.16;6246424;23;20420;-45
2022/07/15 05:36:21;;;;;;;4.50;1.83;;;;;;;25.16;35.76;102067.72;6246110;23;20023;-46
2022/07/15 05:38:49;;;;;;;7.25;1.92;;;;;;;25.17;35.64;102061.63;6245998;23;20012;-51
2022/07/15 05:41:17;;;;;;;8.35;2.03;;;;;;;25.13;35.87;102052.78;6246043;23;20093;-50
2022/07/15 05:43:46;;;;;;;4.55;1.67;;;;;;;25.01;36.21;102055.97;6219938;23;20424;-46
2022/07/15 05:46:14;;;;;;;5.78;1.70;;;;;;;24.98;36.68;102055.00;6246449;23;20000;-45
2022/07/15 05:48:43;;;;;;;7.47;1.77;;;;;;;25.13;36.11;102050.16;6246186;23;20000;-45
2022/07/15 05:51:12;;;;;;;5.50;1.70;;;;;;;25.07;35.89;102026.34;6219769;23;20459;-50
2022/07/15 05:53:40;;;;;;;6.63;1.98;;;;;;;25.18;35.79;102043.28;6218881;23;20004;-49
2022/07/15 05:56:09;;;;;;;7.05;2.33;;;;;;;25.12;36.24;102037.88;6246181;23;20012;-44
2022/07/15 05:58:38;;;;;;;6.60;2.15;;;;;;;25.12;36.71;102047.50;6246086;23;20008;-44
2022/07/15 06:01:06;;;;;;;4.78;1.40;;;;;;;25.23;36.16;102042.53;6246646;23;20004;-46
2022/07/15 06:03:36;;;;;;;5.22;1.55;;;;;;;25.08;36.31;102040.38;6246220;23;20011;-50
2022/07/15 06:06:06;;;;;;;6.97;1.95;;;;;;;25.05;36.38;102029.81;6246091;23;20000;-44
2022/07/15 06:08:35;;;;;;;6.75;1.92;;;;;;;25.13;36.50;102038.78;6246208;23;20051;-47
2022/07/15 06:11:03;;;;;;;6.97;2.13;;;;;;;25.26;36.07;102039.94;6244840;23;20424;-53
2022/07/15 06:13:32;;;;;;;7.50;1.58;;;;;;;25.19;36.50;102023.16;6245850;23;20015;-46
2022/07/15 06:15:59;;;;;;;7.68;1.52;;;;;;;25.22;36.14;102028.50;6245999;23;20046;-53
2022/07/15 06:18:28;;;;;;;5.32;1.88;;;;;;;25.19;36.37;102028.41;6245751;23;20008;-47
2022/07/15 06:20:55;;;;;;;7.35;2.22;;;;;;;25.10;36.65;102022.94;6244691;23;20046;-44
2022/07/15 06:23:24;;;;;;;8.77;2.08;;;;;;;24.99;37.49;102028.78;6246363;23;20000;-51
2022/07/15 06:26:03;;;;;;;7.97;1.95;;;;;;;25.14;36.55;102016.94;5131986;27;20507;-43
2022/07/15 06:28:32;;;;;;;6.70;1.73;;;;;;;25.37;36.23;102009.59;5110783;28;20028;-48
2022/07/15 06:31:01;;;;;;;8.32;1.80;;;;;;;25.25;36.64;102004.03;5111237;28;20028;-46
2022/07/15 06:33:30;;;;;;;7.15;2.13;;;;;;;25.29;36.64;102004.16;5110758;28;20024;-43
2022/07/15 06:35:58;;;;;;;6.38;1.80;;;;;;;25.25;36.80;102012.81;5111462;28;20051;-43
2022/07/15 06:38:27;;;;;;;5.57;1.45;;;;;;;25.24;36.81;102008.41;5110838;28;20388;-47
2022/07/15 06:40:56;;;;;;;7.57;1.80;;;;;;;25.23;37.33;102009.25;5110897;28;20114;-47
2022/07/15 06:43:24;;;;;;;5.15;2.05;;;;;;;25.22;37.40;102006.59;5111311;28;20028;-44
2022/07/15 06:45:52;;;;;;;4.47;1.88;;;;;;;25.39;36.97;102005.28;5110460;28;20024;-47
2022/07/15 06:48:21;;;;;;;6.60;1.90;;;;;;;25.67;36.36;102012.91;5111290;28;20024;-42
2022/07/15 06:50:49;;;;;;;4.85;1.45;;;;;;;25.68;36.40;102019.94;5110649;28;20027;-44
2022/07/15 06:53:18;;;;;;;6.95;1.90;;;;;;;25.61;36.63;102009.31;5110120;28;20434;-45
2022/07/15 06:55:47;;;;;;;5.60;1.70;;;;;;;25.76;36.32;102006.13;5110504;28;20036;-42
2022/07/15 06:58:15;;;;;;;7.97;1.90;;;;;;;25.85;36.20;102004.56;5109941;28;20052;-45
2022/07/15 07:00:44;;;;;;;9.98;1.73;;;;;;;25.96;36.27;102017.94;5110407;28;20081;-45
2022/07/15 07:03:12;;;;;;;4.30;1.55;;;;;;;26.00;35.95;102012.75;5110463;28;20023;-46
2022/07/15 07:05:41;;;;;;;6.10;1.63;;;;;;;25.87;36.61;102003.72;5110383;28;20035;-45
2022/07/15 07:08:09;;;;;;;8.38;2.20;;;;;;;25.95;36.33;101998.63;5110499;28;20027;-44
2022/07/15 07:10:38;;;;;;;8.05;1.80;;;;;;;26.04;36.17;102003.19;5109795;28;20019;-44
2022/07/15 07:13:06;;;;;;;5.88;1.92;;;;;;;26.15;36.00;102014.84;5110284;28;20061;-47
2022/07/15 07:15:33;;;;;;;9.15;2.10;;;;;;;26.15;36.03;102012.22;5110172;28;20027;-48
2022/07/15 07:18:01;;;;;;;5.40;1.70;;;;;;;26.18;35.88;102012.28;5109955;28;20035;-46
2022/07/15 07:20:29;;;;;;;6.82;1.27;;;;;;;26.27;36.00;102002.81;5092422;28;20057;-49
2022/07/15 07:22:57;;;;;;;6.00;1.85;;;;;;;26.28;35.88;102005.47;5110383;28;20028;-54
2022/07/15 07:25:26;;;;;;;7.93;1.60;;;;;;;26.31;35.74;102005.53;5110064;28;20054;-48
2022/07/15 07:27:54;;;;;;;6.13;2.00;;;;;;;26.43;35.65;102009.25;5109354;28;20069;-52
2022/07/15 07:30:22;;;;;;;4.88;1.88;;;;;;;26.41;35.63;102006.59;5109645;28;20023;-49
2022/07/15 07:32:52;;;;;;;6.50;1.92;;;;;;;26.50;35.47;102001.50;5110104;28;20174;-46
2022/07/15 07:35:20;;;;;;;8.15;2.15;;;;;;;26.49;35.68;102002.34;5108217;28;20051;-46
2022/07/15 07:37:49;;;;;;;11.20;2.10;;;;;;;26.46;35.63;101989.16;5095786;28;20070;-45
2022/07/15 07:40:17;;;;;;;5.57;1.55;;;;;;;26.43;35.48;101999.63;5096830;28;20077;-51
2022/07/15 07:42:45;;;;;;;5.70;1.70;;;;;;;26.45;35.73;102007.53;5096066;28;20020;-46
2022/07/15 07:45:14;;;;;;;9.57;2.75;;;;;;;26.61;35.21;101998.19;5095742;28;20101;-46
2022/07/15 07:47:43;;;;;;;6.50;1.67;;;;;;;26.54;34.93;101998.06;5096268;28;20099;-43
2022/07/15 07:50:11;;;;;;;6.65;1.83;;;;;;;26.53;35.53;102003.31;5096293;28;20024;-49
2022/07/15 07:52:39;;;;;;;9.02;2.55;;;;;;;26.55;35.46;101996.34;5095869;28;20369;-50
2022/07/15 07:55:09;;;;;;;8.20;1.80;;;;;;;26.62;35.48;101998.22;5096289;28;20073;-45
2022/07/15 07:57:46;;;;;;;6.75;2.15;;;;;;;26.84;34.97;101998.63;5096295;28;20024;-54
2022/07/15 08:00:15;;;;;;;4.75;1.70;;;;;;;26.92;34.72;102004.91;5096212;28;20452;-51
2022/07/15 08:02:43;;;;;;;7.05;1.80;;;;;;;27.00;34.53;102005.03;5095079;28;20051;-44
2022/07/15 08:05:12;;;;;;;13.93;1.67;;;;;;;27.03;34.32;101999.81;5077853;28;20024;-47
2022/07/15 08:07:41;;;;;;;9.98;1.75;;;;;;;27.01;34.45;102006.78;5095834;28;20505;-45
2022/07/15 08:10:10;;;;;;;5.50;1.95;;;;;;;27.08;34.50;102006.03;5096338;28;20136;-49
2022/07/15 08:12:39;;;;;;;10.00;1.83;;;;;;;27.11;34.35;102005.19;5095542;28;20020;-47
2022/07/15 08:15:10;;;;;;;3.88;1.30;;;;;;;27.20;34.06;102007.09;5095555;28;20376;-44
2022/07/15 08:17:40;;;;;;;6.00;1.55;;;;;;;27.26;33.86;102004.56;5096141;28;20039;-45
2022/07/15 08:20:09;;;;;;;5.25;1.92;;;;;;;27.24;33.90;102001.03;5094892;28;20032;-45
2022/07/15 08:22:38;;;;;;;5.35;1.65;;;;;;;27.39;33.33;102008.25;5095753;28;20455;-49
2022/07/15 08:25:07;;;;;;;7.18;1.88;;;;;;;27.37;33.63;102012.66;5094745;28;20515;-44
2022/07/15 08:27:35;;;;;;;7.07;2.00;;;;;;;27.44;33.32;102023.28;5095921;28;20420;-44
2022/07/15 08:30:04;;;;;;;6.70;2.13;;;;;;;27.33;33.19;101995.88;5095968;28;20036;-46
2022/07/15 08:32:33;;;;;;;8.13;2.28;;;;;;;27.44;33.16;101996.03;5095809;28;20024;-49
2022/07/15 08:35:01;;;;;;;6.43;1.92;;;;;;;27.43;32.75;101999.53;5095245;28;20389;-48
2022/07/15 08:37:30;;;;;;;5.15;1.75;;;;;;;27.50;32.74;102008.44;5095630;28;20534;-51
2022/07/15 08:39:57;;;;;;;10.38;1.92;;;;;;;27.44;32.70;101993.41;5095448;28;20038;-47
2022/07/15 08:42:25;;;;;;;5.93;1.35;;;;;;;27.52;32.75;101988.28;5094851;28;20508;-47
2022/07/15 08:44:54;;;;;;;5.55;1.60;;;;;;;27.64;32.55;101998.97;5095429;28;20134;-47
2022/07/15 08:47:24;;;;;;;5.93;1.77;;;;;;;27.73;32.54;102007.03;5094367;28;20024;-48
2022/07/15 08:49:57;;;;;;;3.17;1.30;;;;;;;27.74;32.50;102010.53;5095106;28;20123;-45
2022/07/15 08:52:27;;;;;;;9.40;1.95;;;;;;;27.59;32.80;101984.88;5095286;28;20408;-44
2022/07/15 08:54:55;;;;;;;5.38;1.88;;;;;;;27.64;32.29;102006.91;5094932;28;20107;-44
2022/07/15 08:57:26;;;;;;;6.70;1.60;;;;;;;27.67;31.98;102006.94;5094812;28;20108;-48
2022/07/15 08:59:55;;;;;;;7.55;1.60;;;;;;;27.71;32.12;101998.22;5094983;28;20119;-44
2022/07/15 09:02:24;;;;;;;5.68;1.55;;;;;;;27.74;31.99;102006.16;5095175;28;20078;-47
2022/07/15 09:05:21;;;;;;;7.18;2.10;;;;;;;27.85;32.01;102010.69;5086900;28;20028;-46
2022/07/15 09:07:53;;;;;;;4.13;1.70;;;;;;;27.79;31.27;102014.13;5068113;28;20603;-49
2022/07/15 09:10:22;;;;;;;6.40;1.35;;;;;;;27.82;31.36;102006.28;5072355;28;20032;-49
2022/07/15 09:12:51;;;;;;;7.95;1.40;;;;;;;27.82;31.69;101997.47;5070134;28;20762;-47
2022/07/15 09:15:38;;;;;;;6.43;1.67;;;;;;;28.00;31.40;102002.09;5072394;28;20060;-48
2022/07/15 09:18:18;;;;;;;8.43;2.03;;;;;;;27.86;31.55;101999.28;5070410;28;20024;-45
2022/07/15 09:20:46;;;;;;;4.50;1.30;;;;;;;27.97;31.48;101997.66;5071792;28;20055;-48
2022/07/15 09:23:20;;;;;;;7.05;1.60;;;;;;;28.00;31.48;102002.97;5071750;28;20033;-47
2022/07/15 09:25:50;;;;;;;6.07;1.83;;;;;;;28.16;31.12;102000.56;5071422;28;20052;-47
2022/07/15 09:28:17;;;;;;;2.75;1.15;;;;;;;28.23;31.00;102001.50;5072697;28;20125;-48
2022/07/15 09:33:37;;;;;;;6.15;1.63;;;;;;;28.15;30.46;101994.41;5066149;28;20075;-51
2022/07/15 09:36:10;;;;;;;4.38;1.50;;;;;;;28.14;30.87;101997.00;5070451;28;20028;-48
2022/07/15 09:38:58;;;;;;;6.35;2.05;;;;;;;28.17;30.34;101995.31;5072315;28;20028;-49
2022/07/15 09:41:32;;;;;;;7.95;1.85;;;;;;;28.22;30.01;101994.44;5058267;28;20044;-50
2022/07/15 09:44:23;;;;;;;3.47;1.60;;;;;;;28.10;29.94;101961.78;5069308;28;20044;-49
2022/07/15 09:46:54;;;;;;;4.25;1.42;;;;;;;28.25;29.71;101992.75;5070093;28;20162;-47
2022/07/15 09:49:32;;;;;;;6.68;1.67;;;;;;;28.22;30.10;101989.16;5071030;28;20467;-45
2022/07/15 09:52:07;;;;;;;6.35;1.75;;;;;;;28.27;30.09;101998.03;5071112;28;20667;-47
2022/07/15 09:54:37;;;;;;;9.20;1.60;;;;;;;28.35;29.79;101978.78;5068922;28;20066;-48
2022/07/15 09:57:07;;;;;;;5.55;1.67;;;;;;;28.43;29.99;101992.06;5069134;28;20044;-47
2022/07/15 09:59:35;;;;;;;8.85;2.20;;;;;;;28.46;29.37;102000.00;5070252;28;20028;-48
2022/07/15 10:02:04;;;;;;;7.55;1.42;;;;;;;28.45;29.49;101995.59;5070542;28;20430;-51
2022/07/15 10:04:31;;;;;;;8.90;1.58;;;;;;;28.46;29.61;102001.78;5070304;28;20040;-45
2022/07/15 10:06:59;;;;;;;5.38;1.52;;;;;;;28.51;29.77;101989.50;5072079;28;20799;-44
2022/07/15 10:09:29;;;;;;;5.85;1.50;;;;;;;28.50;29.87;101990.34;5070997;28;20032;-45
2022/07/15 10:12:01;;;;;;;14.35;1.83;;;;;;;28.52;29.30;101999.19;5069582;28;20031;-49
2022/07/15 10:14:52;;;;;;;4.53;1.40;;;;;;;28.54;29.75;101986.88;5070841;28;20032;-46
2022/07/15 10:17:43;;;;;;;5.63;1.40;;;;;;;28.58;29.90;101993.06;5071693;28;20844;-44
2022/07/15 10:20:21;;;;;;;6.25;1.42;;;;;;;28.66;29.17;101986.13;5062009;28;20493;-46
2022/07/15 10:23:23;;;;;;;5.82;1.98;;;;;;;28.43;29.42;101981.50;5070169;28;20068;-47
2022/07/15 10:26:05;;;;;;;5.10;1.40;;;;;;;28.62;29.14;101994.88;5071985;28;20064;-45
2022/07/15 10:28:46;;;;;;;6.97;1.40;;;;;;;28.69;29.72;101993.19;5069243;28;20034;-49
2022/07/15 10:31:14;;;;;;;6.75;1.52;;;;;;;28.73;28.89;101994.97;5071379;28;20032;-50
2022/07/15 10:33:42;;;;;;;5.20;1.40;;;;;;;28.73;29.04;102002.91;5069838;28;20047;-53
2022/07/15 10:36:11;;;;;;;3.83;1.42;;;;;;;28.74;28.96;101999.44;5070489;28;20131;-52
2022/07/15 10:38:40;;;;;;;5.40;1.63;;;;;;;28.78;28.95;101996.81;5071681;28;20043;-47
2022/07/15 10:41:14;;;;;;;5.38;1.20;;;;;;;28.81;28.74;101998.59;5070965;28;20028;-46
2022/07/15 10:43:54;;;;;;;4.22;1.50;;;;;;;28.83;29.01;102002.13;5071367;28;20040;-45
2022/07/15 10:46:22;;;;;;;4.38;1.80;;;;;;;28.88;28.98;101996.88;5070850;28;20059;-48
2022/07/15 10:49:12;;;;;;;5.47;1.90;;;;;;;28.84;29.04;101993.34;5071104;28;20032;-46
2022/07/15 10:51:40;;;;;;;4.00;1.50;;;;;;;28.91;29.12;101999.56;5070131;28;20033;-47
2022/07/15 10:54:11;;;;;;;5.30;1.60;;;;;;;28.84;29.61;101993.34;5069522;28;20445;-48
2022/07/15 10:56:43;;;;;;;6.28;1.80;;;;;;;28.92;29.11;101999.59;5068365;28;20116;-47
2022/07/15 10:59:30;;;;;;;4.75;1.98;;;;;;;28.93;29.33;101992.53;5069402;28;20516;-52
2022/07/15 11:02:01;;;;;;;10.48;1.90;;;;;;;28.96;29.17;101998.72;5069217;28;20032;-51
2022/07/15 11:04:31;;;;;;;10.05;1.70;;;;;;;28.98;29.34;102005.78;5069463;28;20040;-45
2022/07/15 11:07:09;;;;;;;4.85;1.48;;;;;;;29.05;29.02;102010.25;5069041;28;20123;-49
2022/07/15 11:10:13;;;;;;;6.13;1.60;;;;;;;29.16;28.39;102002.41;5070563;28;20546;-52
2022/07/15 11:12:50;;;;;;;7.07;1.73;;;;;;;29.20;28.62;102017.41;5072187;28;20073;-45
2022/07/15 11:15:23;;;;;;;4.97;1.55;;;;;;;29.13;29.30;102008.53;5074153;28;20036;-48
2022/07/15 11:17:53;;;;;;;4.72;1.67;;;;;;;29.15;29.24;102006.78;5073048;28;20066;-54
2022/07/15 11:20:26;;;;;;;3.63;1.90;;;;;;;29.18;29.13;102020.03;5073889;28;20043;-45
2022/07/15 11:22:57;;;;;;;6.65;1.95;;;;;;;29.17;28.37;102012.97;5071904;28;20036;-45
2022/07/15 11:25:37;;;;;;;4.13;1.50;;;;;;;29.15;28.23;102021.78;5074945;28;21289;-44
2022/07/15 11:28:08;;;;;;;5.60;1.58;;;;;;;29.22;28.11;102028.84;5073710;28;20068;-49
2022/07/15 11:30:39;;;;;;;9.48;1.60;;;;;;;29.30;28.70;102036.84;5074170;28;20036;-51
2022/07/15 11:33:10;;;;;;;9.68;1.63;;;;;;;29.33;28.23;102031.56;5073585;28;20047;-48
2022/07/15 11:36:00;;;;;;;6.70;1.70;;;;;;;29.29;28.10;102030.69;5074867;28;20497;-45
2022/07/15 11:38:31;;;;;;;9.55;2.55;;;;;;;29.36;28.43;102029.00;5072148;28;21303;-44
2022/07/15 11:44:38;;;;;;;4.93;1.90;;;;;;;29.35;28.31;102022.84;5064103;28;20047;-47
2022/07/15 11:46:46;;;;;;;5.38;1.80;;;;;;;29.32;28.08;102024.53;5068064;28;20094;-48